Time;durP1;ratioP1;P1;durP2;ratioP2;P2;SDS_P1;SDS_P2;PMS_P1;PMS_P2;Temp;Humidity;BMP_temperature;BMP_pressure;BME280_temperature;BME280_humidity;BME280_pressure;Samples;Min_cycle;Max_cycle;Signal;HPM_P1;HPM_P2
2022/05/30 00:01:37;;;;;;;1.38;0.80;;;10.20;99.90;;;;;;5213193;28;20643;-77
2022/05/30 00:04:09;;;;;;;0.93;0.93;;;10.20;99.90;;;;;;5211343;28;20025;-79
2022/05/30 00:06:40;;;;;;;0.98;0.98;;;10.20;99.90;;;;;;5216841;28;20056;-77
2022/05/30 00:09:17;;;;;;;1.10;1.10;;;10.20;99.90;;;;;;5222265;28;20035;-77
2022/05/30 00:11:53;;;;;;;2.80;1.30;;;10.20;99.90;;;;;;5213958;28;20033;-78
2022/05/30 00:14:25;;;;;;;0.80;0.80;;;10.30;99.90;;;;;;5248599;28;20035;-77
2022/05/30 00:16:57;;;;;;;2.38;1.00;;;10.20;99.90;;;;;;5205575;28;20060;-77
2022/05/30 00:19:31;;;;;;;0.85;0.85;;;10.30;99.90;;;;;;5230282;28;20039;-75
2022/05/30 00:22:13;;;;;;;0.80;0.80;;;10.30;99.90;;;;;;5230685;28;20303;-79
2022/05/30 00:24:50;;;;;;;0.80;0.80;;;10.20;99.90;;;;;;5204568;28;20025;-81
2022/05/30 00:27:26;;;;;;;1.10;1.10;;;10.20;99.90;;;;;;5237416;28;20026;-77
2022/05/30 00:30:00;;;;;;;1.20;1.10;;;10.20;99.90;;;;;;5223164;28;20043;-75
2022/05/30 00:32:34;;;;;;;1.15;1.15;;;10.20;99.90;;;;;;5203077;28;20026;-77
2022/05/30 00:35:10;;;;;;;0.80;0.80;;;10.30;99.90;;;;;;5203156;28;20104;-78
2022/05/30 00:37:46;;;;;;;1.05;1.05;;;10.30;99.90;;;;;;5189598;28;20029;-79
2022/05/30 00:40:18;;;;;;;1.17;1.05;;;10.30;99.90;;;;;;5212316;28;20039;-77
2022/05/30 00:42:52;;;;;;;0.82;0.82;;;10.30;99.90;;;;;;5192207;28;20017;-76
2022/05/30 00:45:26;;;;;;;1.23;0.95;;;10.40;99.90;;;;;;5222700;28;20031;-77
2022/05/30 00:47:57;;;;;;;1.52;1.33;;;10.40;99.90;;;;;;5229099;28;20024;-77
2022/05/30 00:50:32;;;;;;;0.93;0.93;;;10.40;99.90;;;;;;5210921;28;20025;-77
2022/05/30 00:53:06;;;;;;;1.10;1.10;;;10.40;99.90;;;;;;5210747;28;20025;-75
2022/05/30 00:55:39;;;;;;;1.58;1.33;;;10.40;99.90;;;;;;5208060;28;20069;-75
2022/05/30 00:58:13;;;;;;;0.98;0.98;;;10.40;99.90;;;;;;5207381;28;20606;-77
2022/05/30 01:00:45;;;;;;;1.00;1.00;;;10.40;99.90;;;;;;5230759;28;20021;-78
2022/05/30 01:06:32;;;;;;;0.98;0.98;;;10.40;99.90;;;;;;5197363;28;20100;-78
2022/05/30 01:09:13;;;;;;;1.05;1.05;;;10.30;99.90;;;;;;5230817;28;20020;-77
2022/05/30 01:11:54;;;;;;;1.20;1.10;;;10.40;99.90;;;;;;5208685;28;20056;-79
2022/05/30 01:14:30;;;;;;;1.35;0.98;;;10.30;99.90;;;;;;5208315;28;20039;-78
2022/05/30 01:17:08;;;;;;;0.93;0.93;;;10.30;99.90;;;;;;5228684;28;20021;-76
2022/05/30 01:19:59;;;;;;;1.08;1.05;;;10.30;99.90;;;;;;5210549;28;20029;-77
2022/05/30 01:22:48;;;;;;;0.60;0.60;;;10.30;99.90;;;;;;5229306;28;20295;-80
2022/05/30 01:25:43;;;;;;;1.10;1.10;;;10.30;99.90;;;;;;5228771;28;20036;-76
2022/05/30 01:28:53;;;;;;;1.50;1.38;;;10.30;99.90;;;;;;5228343;28;20037;-78
2022/05/30 01:31:29;;;;;;;1.00;1.00;;;10.30;99.90;;;;;;5209754;28;20360;-76
2022/05/30 01:34:01;;;;;;;0.98;0.98;;;10.20;99.90;;;;;;5208543;28;20029;-76
2022/05/30 01:36:36;;;;;;;0.98;0.85;;;10.10;99.90;;;;;;5209189;28;20035;-76
2022/05/30 01:39:10;;;;;;;1.85;1.20;;;10.10;99.90;;;;;;5211000;28;20047;-77
2022/05/30 01:41:44;;;;;;;0.98;0.98;;;10.10;99.90;;;;;;5220121;28;20027;-78
2022/05/30 01:44:16;;;;;;;0.95;0.95;;;10.00;99.90;;;;;;5230585;28;20505;-77
2022/05/30 01:46:50;;;;;;;1.20;1.20;;;10.00;99.90;;;;;;5213787;28;20022;-76
2022/05/30 01:49:21;;;;;;;;;;;10.00;99.90;;;;;;5207565;28;20251;-77
2022/05/30 01:52:04;;;;;;;0.93;0.93;;;9.90;99.90;;;;;;5212586;28;19905;-81
2022/05/30 01:54:37;;;;;;;0.90;0.90;;;9.90;99.90;;;;;;5189472;28;20414;-76
2022/05/30 01:57:13;;;;;;;1.15;1.15;;;9.80;99.90;;;;;;5210350;28;20029;-78
2022/05/30 01:59:44;;;;;;;1.38;0.95;;;9.80;99.90;;;;;;5211347;28;20021;-77
2022/05/30 02:02:15;;;;;;;0.73;0.73;;;9.80;99.90;;;;;;5223721;28;20037;-76
2022/05/30 02:04:50;;;;;;;0.80;0.80;;;9.80;99.90;;;;;;5212348;28;20487;-77
2022/05/30 02:07:24;;;;;;;0.85;0.85;;;9.80;99.90;;;;;;5227710;28;20025;-76
2022/05/30 02:09:58;;;;;;;0.93;0.93;;;9.80;99.90;;;;;;5205406;28;20033;-77
2022/05/30 02:12:29;;;;;;;1.58;1.48;;;9.70;99.90;;;;;;5207281;28;20234;-76
2022/05/30 02:15:02;;;;;;;0.90;0.90;;;9.60;99.90;;;;;;5192389;28;20029;-77
2022/05/30 02:17:40;;;;;;;0.75;0.75;;;9.60;99.90;;;;;;5227549;28;20033;-76
2022/05/30 02:20:12;;;;;;;0.90;0.90;;;9.60;99.90;;;;;;5228755;28;20025;-80
2022/05/30 02:22:44;;;;;;;0.80;0.80;;;9.50;99.90;;;;;;5210423;28;20226;-77
2022/05/30 02:25:16;;;;;;;0.70;0.70;;;9.40;99.90;;;;;;5228125;28;20047;-77
2022/05/30 02:27:47;;;;;;;0.80;0.80;;;9.40;99.90;;;;;;5227276;28;20029;-78
2022/05/30 02:30:21;;;;;;;0.70;0.70;;;9.30;99.90;;;;;;5219268;28;20033;-78
2022/05/30 02:36:38;;;;;;;0.80;0.80;;;9.30;99.90;;;;;;5237686;28;20029;-81
2022/05/30 02:38:33;;;;;;;0.70;0.70;;;9.20;99.90;;;;;;5196396;28;20029;-78
2022/05/30 02:41:07;;;;;;;0.65;0.65;;;9.10;99.90;;;;;;5209883;28;20626;-78
2022/05/30 02:43:39;;;;;;;0.47;0.47;;;9.00;99.90;;;;;;5230391;28;20031;-77
2022/05/30 02:46:13;;;;;;;0.68;0.68;;;8.80;99.90;;;;;;5214386;28;20027;-77
2022/05/30 02:48:45;;;;;;;1.20;1.10;;;8.70;99.90;;;;;;5215822;28;20024;-78
2022/05/30 02:51:17;;;;;;;2.20;1.10;;;8.70;99.90;;;;;;5214074;28;20036;-75
2022/05/30 02:53:48;;;;;;;0.65;0.65;;;8.60;99.90;;;;;;5214092;28;20247;-78
2022/05/30 02:56:20;;;;;;;0.82;0.82;;;8.60;99.90;;;;;;5197643;28;20462;-77
2022/05/30 02:58:52;;;;;;;0.85;0.85;;;8.40;99.90;;;;;;5214083;28;20025;-79
2022/05/30 03:01:23;;;;;;;0.60;0.60;;;8.40;99.90;;;;;;5231418;28;20035;-80
2022/05/30 03:03:58;;;;;;;1.88;1.10;;;8.30;99.90;;;;;;5213046;28;20057;-78
2022/05/30 03:06:30;;;;;;;0.82;0.82;;;8.20;99.90;;;;;;5185591;28;20042;-79
2022/05/30 03:09:05;;;;;;;1.30;1.20;;;8.30;99.90;;;;;;5213008;28;20047;-80
2022/05/30 03:11:39;;;;;;;0.82;0.82;;;8.30;99.90;;;;;;5240860;28;20024;-79
2022/05/30 03:14:15;;;;;;;0.80;0.80;;;8.20;99.90;;;;;;5245851;28;20033;-78
2022/05/30 03:16:46;;;;;;;1.17;1.08;;;8.20;99.90;;;;;;5232828;28;20024;-78
2022/05/30 03:19:21;;;;;;;0.80;0.80;;;8.20;99.90;;;;;;5250922;28;20034;-80
2022/05/30 03:21:52;;;;;;;0.95;0.95;;;8.10;99.90;;;;;;5251221;28;20466;-74
2022/05/30 03:24:23;;;;;;;0.77;0.77;;;8.10;99.90;;;;;;5251247;28;20020;-73
2022/05/30 03:26:55;;;;;;;0.60;0.60;;;8.00;99.90;;;;;;5250699;28;20020;-75
2022/05/30 03:29:32;;;;;;;0.98;0.98;;;8.00;99.90;;;;;;5232935;28;20024;-76
2022/05/30 03:32:05;;;;;;;0.85;0.85;;;8.10;99.90;;;;;;5217040;28;20037;-77
2022/05/30 03:34:36;;;;;;;1.17;1.08;;;8.10;99.90;;;;;;5224276;28;20029;-77
2022/05/30 03:37:08;;;;;;;1.30;1.20;;;8.10;99.90;;;;;;5212592;28;20043;-75
2022/05/30 03:39:39;;;;;;;0.95;0.95;;;8.10;99.90;;;;;;5212341;28;20043;-79
2022/05/30 03:42:13;;;;;;;4.80;1.15;;;8.10;99.90;;;;;;5208293;28;20029;-77
2022/05/30 03:44:45;;;;;;;0.73;0.73;;;8.10;99.90;;;;;;5210064;28;20033;-77
2022/05/30 03:47:18;;;;;;;0.77;0.77;;;8.20;99.90;;;;;;5193581;28;20026;-79
2022/05/30 03:49:49;;;;;;;0.80;0.80;;;8.40;99.90;;;;;;5211819;28;20039;-80
2022/05/30 03:52:20;;;;;;;0.70;0.70;;;8.50;99.90;;;;;;5230204;28;20031;-76
2022/05/30 03:54:54;;;;;;;0.60;0.60;;;8.60;99.90;;;;;;5211315;28;20033;-77
2022/05/30 03:57:25;;;;;;;0.98;0.98;;;8.70;99.90;;;;;;5228389;28;20047;-78
2022/05/30 03:59:56;;;;;;;1.13;1.08;;;8.70;99.90;;;;;;5228982;28;20029;-77
2022/05/30 04:02:28;;;;;;;0.68;0.68;;;8.70;99.90;;;;;;5225842;28;20120;-78
2022/05/30 04:04:59;;;;;;;0.75;0.75;;;8.70;99.90;;;;;;5211221;28;20041;-79
2022/05/30 04:07:32;;;;;;;1.02;1.02;;;8.60;99.90;;;;;;5209761;28;20371;-77
2022/05/30 04:10:07;;;;;;;2.10;1.10;;;8.60;99.90;;;;;;5192304;28;20033;-77
2022/05/30 04:12:42;;;;;;;1.25;1.20;;;8.60;99.90;;;;;;5245525;28;20028;-76
2022/05/30 04:15:28;;;;;;;0.98;0.98;;;8.60;99.90;;;;;;5232634;28;20032;-79
2022/05/30 04:18:00;;;;;;;0.98;0.98;;;8.50;99.90;;;;;;5238261;28;20021;-78
2022/05/30 04:20:33;;;;;;;0.90;0.90;;;8.50;99.90;;;;;;5230970;28;20039;-78
2022/05/30 04:23:05;;;;;;;0.80;0.80;;;8.60;99.90;;;;;;5202341;28;20033;-77
2022/05/30 04:25:41;;;;;;;1.17;1.13;;;8.80;99.90;;;;;;5211712;28;20030;-79
2022/05/30 04:28:12;;;;;;;0.75;0.75;;;9.00;99.90;;;;;;5210961;28;20021;-79
2022/05/30 04:30:46;;;;;;;1.23;1.10;;;9.30;99.90;;;;;;5209956;28;20021;-77
2022/05/30 04:33:20;;;;;;;1.08;1.08;;;9.50;99.90;;;;;;5209709;28;20056;-78
2022/05/30 04:35:57;;;;;;;1.02;1.02;;;9.70;99.90;;;;;;5211808;28;20042;-78
2022/05/30 04:38:29;;;;;;;0.80;0.80;;;10.00;99.90;;;;;;5203176;28;20036;-81
2022/05/30 04:41:06;;;;;;;0.90;0.90;;;10.40;99.90;;;;;;5192318;28;20036;-78
2022/05/30 04:43:39;;;;;;;1.08;1.08;;;10.50;99.90;;;;;;5212218;28;20029;-81
2022/05/30 04:46:21;;;;;;;0.90;0.90;;;10.70;99.90;;;;;;5230414;28;20486;-78
2022/05/30 04:48:55;;;;;;;1.10;1.00;;;10.80;99.90;;;;;;5213105;28;20027;-77
2022/05/30 04:51:31;;;;;;;1.13;1.10;;;10.90;99.90;;;;;;5230314;28;20222;-79
2022/05/30 04:57:38;;;;;;;0.88;0.88;;;11.50;99.90;;;;;;5225660;28;20016;-80
2022/05/30 05:00:13;;;;;;;1.00;1.00;;;12.20;99.90;;;;;;5211720;28;20045;-81
2022/05/30 05:02:45;;;;;;;1.60;1.20;;;12.70;99.90;;;;;;5229588;28;20024;-77
2022/05/30 05:05:25;;;;;;;1.30;1.20;;;12.70;99.90;;;;;;5187222;28;20049;-76
2022/05/30 05:08:06;;;;;;;1.23;1.00;;;12.90;99.90;;;;;;5219103;28;20035;-75
2022/05/30 05:10:52;;;;;;;1.65;1.30;;;13.40;99.90;;;;;;5216527;28;20030;-78
2022/05/30 05:13:26;;;;;;;1.02;1.02;;;14.00;99.90;;;;;;5228020;28;20051;-78
2022/05/30 05:15:59;;;;;;;1.47;1.03;;;14.60;99.90;;;;;;5229541;28;20096;-76
2022/05/30 05:18:31;;;;;;;1.20;1.20;;;14.70;99.90;;;;;;5229415;28;20023;-78
2022/05/30 05:21:02;;;;;;;1.05;1.00;;;14.60;99.90;;;;;;5229398;28;20033;-78
2022/05/30 05:23:34;;;;;;;1.10;1.10;;;14.60;99.90;;;;;;5211800;28;20043;-78
2022/05/30 05:26:07;;;;;;;0.95;0.95;;;14.50;99.90;;;;;;5229715;28;20029;-77
2022/05/30 05:28:39;;;;;;;1.25;1.15;;;14.40;99.90;;;;;;5211201;28;20028;-80
2022/05/30 05:31:22;;;;;;;1.40;1.30;;;14.50;99.90;;;;;;5211826;28;20031;-79
2022/05/30 05:33:59;;;;;;;0.90;0.90;;;14.70;99.90;;;;;;5182079;28;20040;-78
2022/05/30 05:36:33;;;;;;;1.10;1.10;;;14.70;99.90;;;;;;5171404;28;20038;-78
2022/05/30 05:39:05;;;;;;;0.98;0.98;;;14.80;99.90;;;;;;5167125;28;20026;-75
2022/05/30 05:41:40;;;;;;;1.05;0.93;;;14.70;99.90;;;;;;5177897;28;20030;-76
2022/05/30 05:44:13;;;;;;;1.20;1.10;;;14.70;99.90;;;;;;5187092;28;20028;-78
2022/05/30 05:46:47;;;;;;;0.90;0.90;;;14.70;99.90;;;;;;5187497;28;20022;-77
2022/05/30 05:49:20;;;;;;;1.48;1.00;;;15.00;99.90;;;;;;5187208;28;20376;-77
2022/05/30 05:51:58;;;;;;;1.75;1.02;;;15.30;99.90;;;;;;5187484;28;20026;-76
2022/05/30 05:54:31;;;;;;;1.65;1.55;;;15.20;99.90;;;;;;5188309;28;20469;-80
2022/05/30 05:57:05;;;;;;;3.60;1.00;;;15.00;99.90;;;;;;5173745;28;20034;-77
2022/05/30 05:59:40;;;;;;;1.02;1.02;;;14.80;99.90;;;;;;5199537;28;20032;-77
2022/05/30 06:02:13;;;;;;;;;;;14.20;99.90;;;;;;5157803;28;20030;-77
2022/05/30 06:04:45;;;;;;;1.05;0.93;;;14.00;99.90;;;;;;5169837;28;20294;-78
2022/05/30 06:07:25;;;;;;;1.10;1.10;;;14.00;99.90;;;;;;5173098;28;20030;-77
2022/05/30 06:09:56;;;;;;;1.55;1.40;;;14.30;99.90;;;;;;5172486;28;20025;-77
2022/05/30 06:12:30;;;;;;;1.02;1.02;;;14.70;99.90;;;;;;5168493;28;20034;-81
2022/05/30 06:15:01;;;;;;;0.93;0.90;;;14.80;99.90;;;;;;5187555;28;20032;-78
2022/05/30 06:17:32;;;;;;;1.08;1.08;;;15.40;99.90;;;;;;5185434;28;20037;-79
2022/05/30 06:20:08;;;;;;;1.00;1.00;;;15.70;99.90;;;;;;5193481;28;20032;-80
2022/05/30 06:22:39;;;;;;;1.15;1.15;;;15.80;99.90;;;;;;5185968;28;20037;-79
2022/05/30 06:25:14;;;;;;;1.15;1.05;;;16.30;99.90;;;;;;5176442;28;20061;-76
2022/05/30 06:27:45;;;;;;;1.70;1.60;;;15.80;99.90;;;;;;5189477;28;20102;-76
2022/05/30 06:30:16;;;;;;;2.00;1.42;;;15.50;99.90;;;;;;5174034;28;20030;-79
2022/05/30 06:32:48;;;;;;;1.08;1.05;;;15.40;99.90;;;;;;5184002;28;20117;-79
2022/05/30 06:35:19;;;;;;;1.17;1.10;;;15.40;99.90;;;;;;5174499;28;20051;-80
2022/05/30 06:37:59;;;;;;;2.17;1.42;;;16.10;99.90;;;;;;5206197;28;20034;-78
2022/05/30 06:40:33;;;;;;;2.60;1.50;;;16.90;99.90;;;;;;5181678;28;20036;-80
2022/05/30 06:43:06;;;;;;;1.10;1.10;;;18.00;99.90;;;;;;5190725;28;20041;-79
2022/05/30 06:45:38;;;;;;;1.13;1.10;;;19.00;99.90;;;;;;5195272;28;20055;-79
2022/05/30 06:48:09;;;;;;;1.65;1.00;;;18.90;99.90;;;;;;5189715;28;20034;-80
2022/05/30 06:50:41;;;;;;;1.60;1.30;;;18.90;99.90;;;;;;5210840;28;20041;-81
2022/05/30 06:53:13;;;;;;;0.98;0.98;;;18.80;99.90;;;;;;5191813;28;20033;-82
2022/05/30 06:55:49;;;;;;;1.33;1.17;;;18.30;99.90;;;;;;5178959;28;20066;-80
2022/05/30 06:58:24;;;;;;;1.30;1.20;;;17.90;99.90;;;;;;5198488;28;20442;-79
2022/05/30 07:01:02;;;;;;;;;;;17.30;99.90;;;;;;5200538;28;20533;-78
2022/05/30 07:03:35;;;;;;;1.40;1.33;;;16.50;99.90;;;;;;5233581;28;19900;-76
2022/05/30 07:06:09;;;;;;;1.60;1.50;;;16.40;99.90;;;;;;5219190;28;20037;-76
2022/05/30 07:08:46;;;;;;;2.37;1.40;;;16.70;99.90;;;;;;5226720;28;20032;-77
2022/05/30 07:11:20;;;;;;;1.02;1.02;;;17.30;99.90;;;;;;5214907;28;20023;-77
2022/05/30 07:13:51;;;;;;;1.23;1.13;;;17.90;99.90;;;;;;5226968;28;20032;-76
2022/05/30 07:16:30;;;;;;;1.40;1.30;;;17.40;99.90;;;;;;5222723;28;20039;-75
2022/05/30 07:19:04;;;;;;;1.35;1.20;;;16.80;99.90;;;;;;5214653;28;20033;-79
2022/05/30 07:21:36;;;;;;;4.07;1.67;;;15.80;99.90;;;;;;5196080;28;20036;-76
2022/05/30 07:24:10;;;;;;;2.13;1.58;;;15.40;99.90;;;;;;5212282;28;20029;-77
2022/05/30 07:26:45;;;;;;;1.67;1.55;;;15.40;99.90;;;;;;5196099;28;20039;-78
2022/05/30 07:29:18;;;;;;;;;;;15.60;99.90;;;;;;5222541;28;20028;-77
2022/05/30 07:31:49;;;;;;;1.38;1.27;;;15.70;99.90;;;;;;5212622;28;20134;-79
2022/05/30 07:34:24;;;;;;;1.40;1.30;;;15.60;99.90;;;;;;5223328;28;20033;-78
2022/05/30 07:37:00;;;;;;;2.78;1.42;;;15.40;99.90;;;;;;5209981;28;20029;-79
2022/05/30 07:39:34;;;;;;;1.25;1.23;;;15.40;99.90;;;;;;5232031;28;20720;-77
2022/05/30 07:42:13;;;;;;;1.48;1.38;;;16.10;99.90;;;;;;5225019;28;20067;-74
2022/05/30 07:44:47;;;;;;;2.17;1.70;;;16.70;99.90;;;;;;5236304;28;20135;-76
2022/05/30 07:47:22;;;;;;;1.40;1.30;;;16.70;99.90;;;;;;5220424;28;20033;-77
2022/05/30 07:50:02;;;;;;;1.20;1.20;;;16.60;99.90;;;;;;5234754;28;20025;-77
2022/05/30 07:52:36;;;;;;;1.63;1.52;;;16.80;99.90;;;;;;5194809;28;20383;-77
2022/05/30 07:55:10;;;;;;;1.13;1.13;;;16.70;99.90;;;;;;5210724;28;20032;-78
2022/05/30 07:57:54;;;;;;;2.25;1.73;;;16.20;99.90;;;;;;5218617;28;20469;-76
2022/05/30 08:00:29;;;;;;;1.35;1.25;;;15.90;99.90;;;;;;5208734;28;20033;-81
2022/05/30 08:03:11;;;;;;;1.30;1.20;;;16.10;99.90;;;;;;5212326;28;20017;-78
2022/05/30 08:05:47;;;;;;;1.02;1.02;;;17.30;99.90;;;;;;5182445;28;20374;-80
2022/05/30 08:08:18;;;;;;;1.10;1.08;;;18.10;99.90;;;;;;5220458;28;20025;-79
2022/05/30 08:10:50;;;;;;;1.38;1.27;;;17.80;99.90;;;;;;5212479;28;20049;-74
2022/05/30 08:13:21;;;;;;;1.63;1.25;;;17.50;99.90;;;;;;5232358;28;20436;-78
2022/05/30 08:15:52;;;;;;;1.13;1.08;;;17.50;99.90;;;;;;5230773;28;20460;-77
2022/05/30 08:18:24;;;;;;;1.17;1.08;;;17.90;99.90;;;;;;5230767;28;20384;-76
2022/05/30 08:20:55;;;;;;;1.40;1.30;;;17.80;99.90;;;;;;5222868;28;20430;-78
2022/05/30 08:23:36;;;;;;;1.50;1.13;;;18.00;99.90;;;;;;5227850;28;20027;-75
2022/05/30 08:26:07;;;;;;;1.00;1.00;;;19.40;99.90;;;;;;5214684;28;20013;-77
2022/05/30 08:28:45;;;;;;;1.15;1.10;;;19.50;99.90;;;;;;5229413;28;20025;-76
2022/05/30 08:31:19;;;;;;;1.13;1.02;;;18.80;99.90;;;;;;5224687;28;20029;-77
2022/05/30 08:33:51;;;;;;;1.00;1.00;;;19.00;99.90;;;;;;5216784;28;20037;-79
2022/05/30 08:36:23;;;;;;;1.05;1.05;;;18.80;99.90;;;;;;5231183;28;20025;-77
2022/05/30 08:41:46;;;;;;;4.03;1.10;;;18.50;99.90;;;;;;5211564;28;20021;-77
2022/05/30 08:41:48;;;;;;;0.80;0.80;;;18.80;99.90;;;;;;5217792;28;20052;-78
2022/05/30 08:44:19;;;;;;;1.02;1.02;;;19.30;99.90;;;;;;5228120;28;20029;-78
2022/05/30 08:46:58;;;;;;;2.80;0.90;;;19.60;99.90;;;;;;5219062;28;20040;-75
2022/05/30 08:49:46;;;;;;;0.88;0.88;;;20.70;99.90;;;;;;5228495;28;20025;-79
2022/05/30 08:52:36;;;;;;;1.02;1.00;;;22.50;99.90;;;;;;5226197;28;20020;-77
2022/05/30 08:56:06;;;;;;;0.82;0.82;;;22.40;99.90;;;;;;5233006;28;20025;-76
2022/05/30 08:58:54;;;;;;;1.05;0.95;;;20.90;99.90;;;;;;5214143;28;20055;-77
2022/05/30 09:01:50;;;;;;;0.70;0.70;;;21.40;99.90;;;;;;5212634;28;20036;-76
2022/05/30 09:04:33;;;;;;;0.70;0.70;;;22.60;99.90;;;;;;5217605;28;20035;-78
2022/05/30 09:07:13;;;;;;;0.90;0.90;;;22.20;99.90;;;;;;5227845;28;20345;-80
2022/05/30 09:10:18;;;;;;;0.60;0.60;;;21.20;99.90;;;;;;5210928;28;20029;-74
2022/05/30 09:13:24;;;;;;;0.88;0.88;;;20.10;99.90;;;;;;5217693;28;20024;-75
2022/05/30 09:16:21;;;;;;;0.80;0.80;;;19.60;99.90;;;;;;5145225;28;20047;-78
2022/05/30 09:18:55;;;;;;;1.63;0.93;;;20.70;99.90;;;;;;5144463;28;20373;-78
2022/05/30 09:21:29;;;;;;;;;;;21.00;99.90;;;;;;5129260;28;20035;-77
2022/05/30 09:24:00;;;;;;;0.90;0.90;;;20.30;99.90;;;;;;5152444;28;19959;-76
2022/05/30 09:26:38;;;;;;;0.70;0.70;;;19.70;99.90;;;;;;5165068;28;20551;-80
2022/05/30 09:29:16;;;;;;;1.48;1.02;;;20.80;99.90;;;;;;5150853;28;20022;-78
2022/05/30 09:31:59;;;;;;;1.25;1.15;;;21.30;99.90;;;;;;5164642;28;20052;-78
2022/05/30 09:34:38;;;;;;;1.17;1.05;;;21.60;99.90;;;;;;5163885;28;20046;-79
2022/05/30 09:37:33;;;;;;;1.20;1.10;;;21.40;99.90;;;;;;5164775;28;20045;-79
2022/05/30 09:40:07;;;;;;;0.90;0.90;;;21.20;99.90;;;;;;5164443;28;20042;-76
2022/05/30 09:42:56;;;;;;;1.40;1.00;;;21.60;99.90;;;;;;5159463;28;20026;-78
2022/05/30 09:45:33;;;;;;;0.93;0.93;;;21.60;99.90;;;;;;5164083;28;20042;-76
2022/05/30 09:48:18;;;;;;;2.45;1.02;;;21.20;99.90;;;;;;5165568;28;20049;-76
2022/05/30 09:50:57;;;;;;;0.98;0.98;;;21.50;99.90;;;;;;5155501;28;20508;-79
2022/05/30 09:53:43;;;;;;;1.20;1.10;;;22.40;99.90;;;;;;5177567;28;20383;-79
2022/05/30 09:56:24;;;;;;;1.25;1.10;;;22.80;99.90;;;;;;5203560;28;20036;-80
2022/05/30 09:59:39;;;;;;;0.82;0.70;;;22.40;99.90;;;;;;5229524;28;20021;-78
2022/05/30 10:02:38;;;;;;;1.13;0.93;;;21.40;99.90;;;;;;5184375;28;20030;-79
2022/05/30 10:05:26;;;;;;;2.80;1.20;;;21.40;99.90;;;;;;5213380;28;20037;-81
2022/05/30 10:08:10;;;;;;;0.93;0.90;;;21.50;99.90;;;;;;5227408;28;20029;-79
2022/05/30 10:10:52;;;;;;;0.95;0.95;;;21.90;99.90;;;;;;5228270;28;20031;-80
2022/05/30 10:13:35;;;;;;;0.80;0.80;;;22.20;99.90;;;;;;5189507;28;20037;-78
2022/05/30 10:16:14;;;;;;;1.60;1.08;;;23.90;99.90;;;;;;5208213;28;20033;-78
2022/05/30 10:18:56;;;;;;;1.17;1.08;;;24.80;99.90;;;;;;5225986;28;20039;-79
2022/05/30 10:28:24;;;;;;;1.02;0.95;;;26.60;99.90;;;;;;5204778;28;20033;-82
2022/05/30 10:31:26;;;;;;;1.20;1.05;;;25.20;99.90;;;;;;5208243;28;20029;-77
2022/05/30 10:34:09;;;;;;;1.83;1.00;;;24.40;99.90;;;;;;5190392;28;20039;-78
2022/05/30 10:37:15;;;;;;;1.27;1.00;;;24.20;99.90;;;;;;5202665;28;20475;-79
2022/05/30 10:40:19;;;;;;;1.50;0.70;;;26.20;99.90;;;;;;5234615;28;20023;-78
2022/05/30 10:43:02;;;;;;;1.00;1.00;;;27.60;99.90;;;;;;5228874;28;20055;-78
2022/05/30 10:46:03;;;;;;;0.60;0.60;;;27.10;99.90;;;;;;5228367;28;20039;-80
2022/05/30 10:48:48;;;;;;;1.42;0.73;;;28.40;99.90;;;;;;5228372;28;20046;-77
2022/05/30 10:51:23;;;;;;;1.00;0.90;;;27.50;99.90;;;;;;5197237;28;20434;-80
2022/05/30 10:53:56;;;;;;;;;;;27.20;99.90;;;;;;5222278;28;20557;-79
2022/05/30 10:56:36;;;;;;;0.80;0.80;;;26.30;99.90;;;;;;5228660;28;19905;-82
2022/05/30 10:59:42;;;;;;;1.10;1.00;;;25.40;99.90;;;;;;5227892;28;20027;-81
2022/05/30 11:02:41;;;;;;;1.20;1.10;;;25.20;99.90;;;;;;5231479;28;20029;-81
2022/05/30 11:05:18;;;;;;;0.80;0.80;;;25.10;99.90;;;;;;5211141;28;20103;-83
2022/05/30 11:08:06;;;;;;;1.45;1.00;;;24.20;99.90;;;;;;5246481;28;20029;-79
2022/05/30 11:10:44;;;;;;;0.80;0.80;;;23.60;99.90;;;;;;5195513;28;20048;-78
2022/05/30 11:13:38;;;;;;;0.98;0.90;;;23.70;99.90;;;;;;5211958;28;20456;-80
2022/05/30 11:16:13;;;;;;;1.27;1.00;;;24.10;99.90;;;;;;5178295;28;20038;-81
2022/05/30 11:19:05;;;;;;;0.80;0.80;;;24.10;99.90;;;;;;5233064;28;20021;-82
2022/05/30 11:22:05;;;;;;;1.83;1.10;;;24.10;99.90;;;;;;5215225;28;20021;-79
2022/05/30 11:24:39;;;;;;;0.77;0.77;;;23.90;99.90;;;;;;5215105;28;20518;-83
2022/05/30 11:27:41;;;;;;;2.17;1.00;;;23.70;99.90;;;;;;5224313;28;20219;-80
2022/05/30 11:30:36;;;;;;;1.13;1.02;;;22.70;99.90;;;;;;5201354;28;20025;-80
2022/05/30 11:33:43;;;;;;;1.70;1.10;;;22.60;99.90;;;;;;5224609;28;20029;-79
2022/05/30 11:36:18;;;;;;;1.10;1.00;;;22.90;99.90;;;;;;5206775;28;20042;-78
2022/05/30 11:39:26;;;;;;;0.70;0.70;;;23.00;99.90;;;;;;5185290;28;20203;-78
2022/05/30 11:42:31;;;;;;;1.58;1.08;;;23.40;99.90;;;;;;5183746;28;20032;-80
2022/05/30 11:45:53;;;;;;;1.73;0.98;;;23.80;99.90;;;;;;5190317;28;20018;-78
2022/05/30 11:48:55;;;;;;;0.90;0.90;;;23.50;99.90;;;;;;5184440;28;20370;-78
2022/05/30 11:51:55;;;;;;;1.20;0.80;;;22.80;99.90;;;;;;5190138;28;20028;-79
2022/05/30 11:54:58;;;;;;;0.80;0.80;;;22.60;99.90;;;;;;5189812;28;20207;-79
2022/05/30 11:57:49;;;;;;;1.45;1.10;;;22.50;99.90;;;;;;5189447;28;20024;-79
2022/05/30 12:00:52;;;;;;;2.13;0.65;;;24.90;99.90;;;;;;5188371;28;20030;-74
2022/05/30 12:03:54;;;;;;;1.48;1.00;;;25.40;99.90;;;;;;5206174;28;20029;-77
2022/05/30 12:07:06;;;;;;;1.00;1.00;;;26.80;99.90;;;;;;5168248;28;20041;-76
2022/05/30 12:09:56;;;;;;;2.47;0.90;;;27.70;99.90;;;;;;5189863;28;20035;-77
2022/05/30 12:12:51;;;;;;;1.25;1.10;;;28.60;99.90;;;;;;5211581;28;20647;-81
2022/05/30 12:16:00;;;;;;;0.77;0.77;;;29.10;99.90;;;;;;5199624;28;20037;-81
2022/05/30 12:24:49;;;;;;;1.48;1.38;;;26.00;99.90;;;;;;5208516;28;20040;-78
2022/05/30 12:27:33;;;;;;;0.90;0.90;;;24.00;99.90;;;;;;5187351;28;20044;-77
2022/05/30 12:30:33;;;;;;;0.90;0.90;;;24.30;99.90;;;;;;5189324;28;20029;-79
2022/05/30 12:33:28;;;;;;;1.02;0.98;;;26.00;99.90;;;;;;5206864;28;20052;-81
2022/05/30 12:36:13;;;;;;;1.58;1.00;;;24.80;99.90;;;;;;5205395;28;20044;-77
2022/05/30 12:38:58;;;;;;;;;;;23.30;99.90;;;;;;5199020;28;20307;-76
2022/05/30 12:41:32;;;;;;;0.80;0.80;;;24.10;99.90;;;;;;5186112;28;19905;-82
2022/05/30 12:44:21;;;;;;;1.17;0.85;;;25.80;99.90;;;;;;5188250;28;20456;-79
2022/05/30 12:47:08;;;;;;;1.23;0.77;;;26.50;99.90;;;;;;5187995;28;20031;-79
2022/05/30 12:49:47;;;;;;;2.40;1.10;;;27.60;99.90;;;;;;5189855;28;20028;-78
2022/05/30 12:52:21;;;;;;;1.20;1.10;;;26.60;99.90;;;;;;5190226;28;20399;-79
2022/05/30 12:54:58;;;;;;;2.90;0.82;;;27.70;99.90;;;;;;5187230;28;20048;-79
2022/05/30 12:57:42;;;;;;;0.73;0.73;;;28.50;99.90;;;;;;5188549;28;20034;-81
2022/05/30 13:00:39;;;;;;;1.30;1.20;;;29.70;99.90;;;;;;5186901;28;20036;-79
2022/05/30 13:03:30;;;;;;;0.70;0.70;;;31.00;99.90;;;;;;5189855;28;20260;-79
2022/05/30 13:06:19;;;;;;;1.88;0.80;;;30.50;99.90;;;;;;5173356;28;20046;-82
2022/05/30 13:08:50;;;;;;;0.88;0.88;;;29.60;99.90;;;;;;5197778;28;20026;-78
2022/05/30 13:11:51;;;;;;;0.75;0.70;;;30.00;99.90;;;;;;5171736;28;20022;-82
2022/05/30 13:14:39;;;;;;;0.80;0.80;;;30.30;99.90;;;;;;5174905;28;20354;-83
2022/05/30 13:17:19;;;;;;;2.65;1.15;;;30.40;99.90;;;;;;5178406;28;20335;-80
2022/05/30 13:20:00;;;;;;;1.85;0.98;;;29.50;99.90;;;;;;5192476;28;20028;-81
2022/05/30 13:22:45;;;;;;;1.48;0.95;;;30.30;99.90;;;;;;5209515;28;20040;-79
2022/05/30 13:25:21;;;;;;;0.95;0.90;;;29.90;99.90;;;;;;5192400;28;20028;-79
2022/05/30 13:27:52;;;;;;;0.80;0.80;;;30.60;99.90;;;;;;5188194;28;20464;-81
2022/05/30 13:30:27;;;;;;;1.10;1.00;;;29.30;99.90;;;;;;5188579;28;20029;-80
2022/05/30 13:33:00;;;;;;;0.95;0.90;;;29.10;99.90;;;;;;5203477;28;20024;-80
2022/05/30 13:35:32;;;;;;;0.77;0.77;;;26.50;99.90;;;;;;5205251;28;20063;-80
2022/05/30 13:38:08;;;;;;;0.68;0.60;;;25.40;99.90;;;;;;5212844;28;20557;-80
2022/05/30 13:40:48;;;;;;;0.80;0.80;;;26.00;99.90;;;;;;5207647;28;20025;-80
2022/05/30 13:43:30;;;;;;;0.82;0.80;;;27.30;99.90;;;;;;5234924;28;20021;-79
2022/05/30 13:46:12;;;;;;;0.60;0.60;;;25.50;99.90;;;;;;5212552;28;20047;-79
2022/05/30 13:48:46;;;;;;;0.77;0.77;;;25.20;99.90;;;;;;5223047;28;20016;-80
2022/05/30 13:51:31;;;;;;;0.70;0.70;;;25.30;99.90;;;;;;5231847;28;20024;-80
2022/05/30 13:54:06;;;;;;;0.70;0.70;;;24.50;99.90;;;;;;5230235;28;20020;-79
2022/05/30 13:56:43;;;;;;;0.77;0.77;;;24.20;99.90;;;;;;5229521;28;20025;-81
2022/05/30 13:59:14;;;;;;;0.70;0.70;;;25.40;99.90;;;;;;5194210;28;20033;-81
2022/05/30 14:01:47;;;;;;;1.13;0.63;;;27.00;99.90;;;;;;5194810;28;20234;-79
2022/05/30 14:04:25;;;;;;;1.05;0.95;;;27.00;99.90;;;;;;5219570;28;20422;-79
2022/05/30 14:06:59;;;;;;;1.10;0.95;;;25.60;99.90;;;;;;5229019;28;20414;-81
2022/05/30 14:09:33;;;;;;;0.90;0.90;;;24.80;99.90;;;;;;5211455;28;20052;-79
2022/05/30 14:12:05;;;;;;;0.98;0.85;;;23.50;99.90;;;;;;5212447;28;20276;-80
2022/05/30 14:14:45;;;;;;;0.95;0.95;;;22.90;99.90;;;;;;5229254;28;20035;-77